Aérodrome :
LOGIN :

S'inscrire | Disclaimer

   EN    FR    IT 

 










Légende :    VFR   VFR Marginal   IFR   IFR Intensif   IFR Très Intensif
Visi : 
Plafond : 
>= 8 km
>= 3000ft
5 à 8 km
1000 à 3000 ft
1500m à 5 km
500 à 1000 ft
800 à 1500m
200 à 500 ft
< 800m
< 200 ft
Symboles :   Orages  Brouillard  Fortes neiges  Fortes précipitations  Vent > 20 kt
SIGMETs :   Divers  Orages  Givrage  Turbulence  Onde Orograph.  Cendres Volcan.







- Altitude de l'aérodrome : 170 ft
- Code IATA : BGO


ENBR - Bergen , Flesland

DERNIER METAR :
  • 221620Z 14013KT 9999 FEW018 SCT030 BKN040 04/M05 Q0998 NOSIG RMK WIND 1200FT 13030KT

METARs EXPIRÉS :
  • 221550Z 14015KT 9999 FEW019 SCT030 BKN040 04/M04 Q0998 NOSIG RMK WIND 1200FT 12034G46KT
  • 221520Z 14013KT 9999 FEW020 SCT030 BKN040 04/M05 Q0998 NOSIG RMK WIND 1200FT 12031G45KT
  • 221450Z 14015KT 9999 FEW020 BKN040 04/M04 Q0998 NOSIG RMK WIND 1200FT 12034G45KT
  • 221420Z 13010KT 080V170 9999 SCT020 BKN035 04/M05 Q0998 NOSIG RMK WIND 1200FT 13027KT
  • 221350Z 13010KT 9999 FEW035 SCT045 BKN055 04/M05 Q0998 NOSIG RMK WIND 1200FT 13028KT

TAF TAF ENBR
Valide du 22 à 12h jusqu'au 23 à 12h UTC


2212/2312 13010KT 9999 FEW025 BKN045
BECMG 2222/2224 VRB05KT
Pas de NOTAMs connus pour ce terrain.



MET'MAP, la Météo Aéronautique d'un coup d'oeil ! - Copyright ORBIFLY Décembre 2007 - Disclaimer

ORBIFLY MET'MAP TEAM :

Programmation & Développement : Alexandra Zaïnal
Conception & Développement : Baudouin d'Aumeries
Co-Programmation & Développement : Marc-Olivier Méhu
Soutien technique & logistique : Manuel Goepfert

Contact : metmap@orbifly.com




SOURCES & CREDITS :

   NOAA